createdAt,value
2023-04-20T00:00:51.012Z,2.17
2023-04-20T00:01:51.032Z,2.16
2023-04-20T00:02:51.139Z,2.16
2023-04-20T00:03:51.176Z,2.16
2023-04-20T00:04:50.988Z,2.16
2023-04-20T00:05:50.974Z,2.16
2023-04-20T00:06:51.018Z,2.15
2023-04-20T00:07:50.936Z,2.15
2023-04-20T00:08:50.955Z,2.15
2023-04-20T00:09:50.903Z,2.15
2023-04-20T00:10:50.905Z,2.15
2023-04-20T00:11:50.886Z,2.16
2023-04-20T00:12:50.864Z,2.17
2023-04-20T00:13:50.890Z,2.17
2023-04-20T00:14:50.838Z,2.16
2023-04-20T00:15:50.841Z,2.15
2023-04-20T00:16:50.850Z,2.13
2023-04-20T00:17:50.828Z,2.13
2023-04-20T00:18:50.779Z,2.12
2023-04-20T00:19:50.789Z,2.11
2023-04-20T00:20:50.753Z,2.11
2023-04-20T00:21:50.772Z,2.11
2023-04-20T00:22:50.735Z,2.11
2023-04-20T00:23:50.730Z,2.10
2023-04-20T00:24:50.793Z,2.10
2023-04-20T00:25:50.727Z,2.10
2023-04-20T00:26:50.674Z,2.10
2023-04-20T00:27:50.673Z,2.09
2023-04-20T00:28:50.650Z,2.09
2023-04-20T00:29:53.057Z,2.09
2023-04-20T00:30:52.364Z,2.09
2023-04-20T00:31:50.678Z,2.09
2023-04-20T00:32:50.638Z,2.10
2023-04-20T00:33:50.582Z,2.10
2023-04-20T00:34:50.621Z,2.09
2023-04-20T00:35:50.628Z,2.08
2023-04-20T00:36:50.569Z,2.07
2023-04-20T00:37:50.535Z,2.06
2023-04-20T00:38:50.517Z,2.06
2023-04-20T00:39:50.520Z,2.05
2023-04-20T00:40:50.498Z,2.04
2023-04-20T00:41:50.517Z,2.04
2023-04-20T00:42:50.490Z,2.03
2023-04-20T00:43:50.470Z,2.03
2023-04-20T00:44:50.458Z,2.03
2023-04-20T00:45:50.473Z,2.03
2023-04-20T00:46:50.463Z,2.03
2023-04-20T00:47:50.480Z,2.02
2023-04-20T00:48:50.389Z,2.02
2023-04-20T00:49:50.488Z,2.02
2023-04-20T00:50:50.375Z,2.01
2023-04-20T00:51:50.386Z,2.01
2023-04-20T00:52:50.358Z,2.01
2023-04-20T00:53:50.374Z,2.01
2023-04-20T00:54:50.319Z,2.01
2023-04-20T00:55:50.308Z,2.01
2023-04-20T00:56:50.295Z,2.01
2023-04-20T00:57:50.308Z,2.00
2023-04-20T00:58:50.289Z,1.99
2023-04-20T00:59:50.251Z,1.98
2023-04-20T01:00:50.237Z,1.98
2023-04-20T01:01:50.260Z,1.97
2023-04-20T01:02:59.099Z,1.96
2023-04-20T01:03:50.329Z,1.96
2023-04-20T01:04:50.205Z,1.95
2023-04-20T01:05:50.227Z,1.95
2023-04-20T01:06:50.172Z,1.94
2023-04-20T01:07:50.204Z,1.94
2023-04-20T01:08:50.172Z,1.94
2023-04-20T01:09:50.154Z,1.93
2023-04-20T01:10:50.182Z,1.93
2023-04-20T01:11:50.121Z,1.93
2023-04-20T01:12:50.088Z,1.92
2023-04-20T01:13:50.108Z,1.92
2023-04-20T01:14:50.092Z,1.92
2023-04-20T01:15:50.141Z,1.92
2023-04-20T01:16:50.067Z,1.92
2023-04-20T01:17:50.082Z,1.92
2023-04-20T01:18:50.026Z,1.92
2023-04-20T01:19:50.134Z,1.92
2023-04-20T01:20:50.001Z,1.93
2023-04-20T01:21:49.983Z,1.93
2023-04-20T01:22:49.963Z,1.92
2023-04-20T01:23:49.981Z,1.93
2023-04-20T01:24:49.940Z,1.93
2023-04-20T01:25:49.952Z,1.93
2023-04-20T01:26:49.939Z,1.93
2023-04-20T01:27:49.897Z,1.93
2023-04-20T01:28:49.911Z,1.94
2023-04-20T01:29:49.891Z,1.94
2023-04-20T01:30:49.857Z,1.95
2023-04-20T01:31:49.915Z,1.95
2023-04-20T01:32:49.925Z,1.95
2023-04-20T01:33:49.824Z,1.95
2023-04-20T01:34:49.803Z,1.94
2023-04-20T01:35:49.837Z,1.93
2023-04-20T01:36:49.776Z,1.93
2023-04-20T01:37:49.793Z,1.93
2023-04-20T01:38:49.775Z,1.92
2023-04-20T01:39:49.775Z,1.91
2023-04-20T01:40:49.728Z,1.91
2023-04-20T01:41:49.744Z,1.91
2023-04-20T01:42:49.712Z,1.91
2023-04-20T01:43:49.733Z,1.91
2023-04-20T01:44:49.722Z,1.91
2023-04-20T01:45:49.687Z,1.91
2023-04-20T01:46:49.678Z,1.91
2023-04-20T01:47:49.694Z,1.91
2023-04-20T01:48:49.630Z,1.91
2023-04-20T01:49:49.636Z,1.91
2023-04-20T01:50:49.642Z,1.90
2023-04-20T01:51:49.607Z,1.90
2023-04-20T01:52:49.608Z,1.90
2023-04-20T01:53:49.585Z,1.89
2023-04-20T01:54:49.552Z,1.89
2023-04-20T01:55:49.603Z,1.89
2023-04-20T01:56:49.575Z,1.89
2023-04-20T01:57:49.515Z,1.88
2023-04-20T01:58:49.501Z,1.88
2023-04-20T01:59:49.510Z,1.89
2023-04-20T02:00:49.493Z,1.89
2023-04-20T02:01:49.527Z,1.88
2023-04-20T02:02:49.618Z,1.88
2023-04-20T02:03:49.904Z,1.88
2023-04-20T02:04:49.444Z,1.88
2023-04-20T02:05:49.441Z,1.87
2023-04-20T02:06:49.400Z,1.87
2023-04-20T02:07:49.408Z,1.87
2023-04-20T02:08:49.384Z,1.87
2023-04-20T02:09:49.372Z,1.87
2023-04-20T02:10:49.345Z,1.87
2023-04-20T02:11:49.337Z,1.87
2023-04-20T02:12:49.364Z,1.87
2023-04-20T02:13:49.306Z,1.87
2023-04-20T02:14:49.319Z,1.88
2023-04-20T02:15:49.321Z,1.89
2023-04-20T02:16:49.329Z,1.89
2023-04-20T02:17:49.272Z,1.88
2023-04-20T02:18:49.265Z,1.88
2023-04-20T02:19:49.271Z,1.89
2023-04-20T02:20:49.220Z,1.89
2023-04-20T02:21:49.209Z,1.90
2023-04-20T02:22:49.210Z,1.92
2023-04-20T02:23:49.189Z,1.93
2023-04-20T02:24:49.198Z,1.94
2023-04-20T02:25:49.175Z,1.95
2023-04-20T02:26:49.157Z,1.95
2023-04-20T02:27:49.122Z,1.96
2023-04-20T02:28:49.149Z,1.97
2023-04-20T02:29:49.103Z,1.98
2023-04-20T02:30:49.125Z,1.99
2023-04-20T02:31:49.183Z,2.00
2023-04-20T02:32:49.165Z,2.00
2023-04-20T02:33:49.052Z,2.01
2023-04-20T02:34:49.055Z,2.01
2023-04-20T02:35:49.046Z,2.01
2023-04-20T02:36:49.014Z,2.01
2023-04-20T02:37:49.028Z,2.01
2023-04-20T02:38:48.988Z,2.00
2023-04-20T02:39:49.002Z,2.00
2023-04-20T02:40:48.994Z,2.00
2023-04-20T02:41:48.957Z,2.00
2023-04-20T02:42:48.953Z,2.00
2023-04-20T02:43:48.963Z,2.00
2023-04-20T02:44:48.938Z,2.00
2023-04-20T02:45:48.920Z,1.99
2023-04-20T02:46:49.052Z,1.99
2023-04-20T02:47:48.934Z,1.98
2023-04-20T02:48:48.884Z,1.98
2023-04-20T02:49:48.864Z,1.97
2023-04-20T02:50:48.853Z,1.97
2023-04-20T02:51:48.833Z,1.96
2023-04-20T02:52:48.855Z,1.96
2023-04-20T02:53:48.810Z,1.95
2023-04-20T02:54:48.797Z,1.94
2023-04-20T02:55:48.793Z,1.94
2023-04-20T02:56:48.805Z,1.93
2023-04-20T02:57:48.738Z,1.92
2023-04-20T02:58:48.746Z,1.91
2023-04-20T02:59:48.729Z,1.91
2023-04-20T03:00:48.719Z,1.91
2023-04-20T03:01:48.753Z,1.90
2023-04-20T03:02:48.899Z,1.90
2023-04-20T03:03:48.786Z,1.90
2023-04-20T03:04:48.831Z,1.90
2023-04-20T03:05:48.654Z,1.90
2023-04-20T03:06:48.639Z,1.89
2023-04-20T03:07:48.672Z,1.89
2023-04-20T03:08:48.600Z,1.88
2023-04-20T03:09:48.606Z,1.87
2023-04-20T03:10:48.618Z,1.87
2023-04-20T03:11:48.576Z,1.87
2023-04-20T03:12:48.567Z,1.87
2023-04-20T03:13:48.609Z,1.87
2023-04-20T03:14:48.550Z,1.87
2023-04-20T03:15:48.513Z,1.87
2023-04-20T03:16:48.618Z,1.87
2023-04-20T03:17:48.548Z,1.86
2023-04-20T03:18:48.494Z,1.85
2023-04-20T03:19:48.538Z,1.85
2023-04-20T03:20:48.452Z,1.86
2023-04-20T03:21:48.439Z,1.86
2023-04-20T03:22:48.464Z,1.87
2023-04-20T03:23:48.416Z,1.87
2023-04-20T03:24:50.240Z,1.88
2023-04-20T03:25:48.414Z,1.88
2023-04-20T03:26:48.386Z,1.89
2023-04-20T03:27:48.374Z,1.89
2023-04-20T03:28:48.348Z,1.90
2023-04-20T03:29:48.338Z,1.90
2023-04-20T03:30:48.333Z,1.90
2023-04-20T03:31:48.420Z,1.90
2023-04-20T03:32:48.342Z,1.90
2023-04-20T03:33:48.291Z,1.90
2023-04-20T03:34:48.279Z,1.91
2023-04-20T03:35:48.256Z,1.90
2023-04-20T03:36:48.247Z,1.90
2023-04-20T03:37:48.286Z,1.90
2023-04-20T03:38:48.232Z,1.90
2023-04-20T03:39:48.205Z,1.90
2023-04-20T03:40:48.218Z,1.89
2023-04-20T03:41:48.184Z,1.88
2023-04-20T03:42:48.170Z,1.88
2023-04-20T03:43:48.201Z,1.88
2023-04-20T03:44:48.181Z,1.88
2023-04-20T03:45:48.207Z,1.89
2023-04-20T03:46:48.125Z,1.88
2023-04-20T03:47:48.135Z,1.88
2023-04-20T03:48:48.089Z,1.87
2023-04-20T03:49:48.140Z,1.87
2023-04-20T03:50:48.076Z,1.87
2023-04-20T03:51:48.055Z,1.87
2023-04-20T03:52:48.057Z,1.87
2023-04-20T03:53:48.050Z,1.87
2023-04-20T03:54:48.008Z,1.86
2023-04-20T03:55:48.051Z,1.86
2023-04-20T03:56:47.995Z,1.86
2023-04-20T03:57:47.978Z,1.86
2023-04-20T03:58:48.007Z,1.86
2023-04-20T03:59:48.103Z,1.86
2023-04-20T04:00:47.936Z,1.86
2023-04-20T04:01:47.984Z,1.86
2023-04-20T04:02:48.017Z,1.86
2023-04-20T04:03:48.152Z,1.87
2023-04-20T04:04:48.027Z,1.87
2023-04-20T04:05:47.884Z,1.87
2023-04-20T04:06:47.865Z,1.87
2023-04-20T04:07:47.905Z,1.87
2023-04-20T04:08:47.865Z,1.87
2023-04-20T04:09:47.826Z,1.87
2023-04-20T04:10:47.836Z,1.87
2023-04-20T04:11:47.802Z,1.87
2023-04-20T04:12:47.785Z,1.88
2023-04-20T04:13:47.831Z,1.87
2023-04-20T04:14:47.780Z,1.87
2023-04-20T04:15:47.749Z,1.87
2023-04-20T04:16:47.778Z,1.87
2023-04-20T04:17:47.754Z,1.86
2023-04-20T04:18:47.704Z,1.86
2023-04-20T04:19:47.750Z,1.86
2023-04-20T04:20:47.683Z,1.86
2023-04-20T04:21:47.671Z,1.86
2023-04-20T04:22:47.684Z,1.87
2023-04-20T04:23:47.650Z,1.87
2023-04-20T04:24:47.685Z,1.87
2023-04-20T04:25:47.641Z,1.87
2023-04-20T04:26:47.612Z,1.87
2023-04-20T04:27:47.597Z,1.87
2023-04-20T04:28:47.627Z,1.87
2023-04-20T04:29:47.559Z,1.88
2023-04-20T04:30:47.571Z,1.88
2023-04-20T04:31:47.714Z,1.89
2023-04-20T04:32:47.562Z,1.90
2023-04-20T04:33:47.533Z,1.90
2023-04-20T04:34:47.542Z,1.91
2023-04-20T04:35:47.518Z,1.91
2023-04-20T04:36:47.494Z,1.91
2023-04-20T04:37:47.494Z,1.92
2023-04-20T04:38:47.450Z,1.92
2023-04-20T04:39:47.455Z,1.93
2023-04-20T04:40:47.460Z,1.94
2023-04-20T04:41:47.410Z,1.94
2023-04-20T04:42:47.433Z,1.94
2023-04-20T04:43:47.426Z,1.94
2023-04-20T04:44:47.460Z,1.95
2023-04-20T04:45:47.406Z,1.95
2023-04-20T04:46:47.600Z,1.96
2023-04-20T04:47:47.404Z,1.97
2023-04-20T04:48:47.348Z,1.98
2023-04-20T04:49:47.365Z,1.99
2023-04-20T04:50:47.310Z,1.99
2023-04-20T04:51:47.300Z,2.00
2023-04-20T04:52:47.293Z,2.00
2023-04-20T04:53:47.273Z,2.00
2023-04-20T04:54:47.282Z,2.01
2023-04-20T04:55:47.277Z,2.02
2023-04-20T04:56:47.217Z,2.03
2023-04-20T04:57:47.212Z,2.03
2023-04-20T04:58:47.230Z,2.04
2023-04-20T04:59:47.209Z,2.05
2023-04-20T05:00:47.196Z,2.05
2023-04-20T05:01:47.225Z,2.06
2023-04-20T05:02:47.394Z,2.06
2023-04-20T05:03:47.439Z,2.07
2023-04-20T05:04:47.311Z,2.07
2023-04-20T05:05:47.201Z,2.08
2023-04-20T05:06:47.173Z,2.08
2023-04-20T05:07:47.214Z,2.07
2023-04-20T05:08:47.169Z,2.07
2023-04-20T05:09:47.149Z,2.07
2023-04-20T05:10:47.082Z,2.06
2023-04-20T05:11:47.026Z,2.06
2023-04-20T05:12:47.090Z,2.05
2023-04-20T05:13:47.055Z,2.04
2023-04-20T05:14:46.999Z,2.03
2023-04-20T05:15:47.019Z,2.02
2023-04-20T05:16:47.244Z,2.02
2023-04-20T05:17:47.008Z,2.02
2023-04-20T05:18:46.990Z,2.02
2023-04-20T05:19:46.962Z,2.02
2023-04-20T05:20:46.940Z,2.02
2023-04-20T05:21:46.902Z,2.01
2023-04-20T05:22:46.905Z,2.02
2023-04-20T05:23:46.898Z,2.02
2023-04-20T05:24:46.917Z,2.01
2023-04-20T05:25:46.888Z,2.00
2023-04-20T05:26:46.839Z,2.01
2023-04-20T05:27:46.832Z,2.01
2023-04-20T05:28:46.870Z,2.00
2023-04-20T05:29:46.810Z,2.00
2023-04-20T05:30:46.849Z,1.99
2023-04-20T05:31:46.877Z,1.99
2023-04-20T05:32:49.155Z,2.00
2023-04-20T05:33:46.772Z,2.01
2023-04-20T05:34:46.755Z,2.01
2023-04-20T05:35:46.724Z,2.01
2023-04-20T05:36:46.737Z,2.01
2023-04-20T05:37:46.717Z,2.00
2023-04-20T05:38:46.703Z,2.00
2023-04-20T05:39:46.669Z,2.01
2023-04-20T05:40:46.682Z,2.03
2023-04-20T05:41:46.641Z,2.04
2023-04-20T05:42:46.669Z,2.04
2023-04-20T05:43:46.662Z,2.02
2023-04-20T05:44:46.616Z,2.01
2023-04-20T05:45:46.721Z,2.00
2023-04-20T05:46:46.612Z,1.98
2023-04-20T05:47:46.589Z,1.98
2023-04-20T05:48:46.592Z,1.97
2023-04-20T05:49:46.560Z,1.97
2023-04-20T05:50:46.559Z,1.97
2023-04-20T05:51:46.577Z,1.97
2023-04-20T05:52:46.565Z,1.97
2023-04-20T05:53:46.526Z,1.98
2023-04-20T05:54:46.490Z,1.98
2023-04-20T05:55:46.509Z,1.97
2023-04-20T05:56:46.458Z,1.97
2023-04-20T05:57:46.481Z,1.97
2023-04-20T05:58:46.460Z,1.98
2023-04-20T05:59:46.450Z,1.99
2023-04-20T06:00:46.478Z,1.99
2023-04-20T06:01:46.467Z,2.00
2023-04-20T06:02:46.645Z,1.99
2023-04-20T06:03:46.570Z,1.99
2023-04-20T06:04:46.697Z,2.00
2023-04-20T06:05:46.427Z,2.01
2023-04-20T06:06:46.356Z,2.01
2023-04-20T06:07:46.371Z,2.02
2023-04-20T06:08:46.320Z,2.02
2023-04-20T06:09:46.325Z,2.02
2023-04-20T06:10:46.292Z,2.04
2023-04-20T06:11:46.323Z,2.07
2023-04-20T06:12:46.298Z,2.09
2023-04-20T06:13:46.259Z,2.12
2023-04-20T06:14:46.247Z,2.14
2023-04-20T06:15:46.308Z,2.15
2023-04-20T06:16:46.234Z,2.16
2023-04-20T06:17:46.294Z,2.17
2023-04-20T06:18:46.179Z,2.17
2023-04-20T06:19:46.171Z,2.19
2023-04-20T06:20:46.160Z,2.22
2023-04-20T06:21:46.157Z,2.24
2023-04-20T06:22:46.174Z,2.26
2023-04-20T06:23:46.130Z,2.27
2023-04-20T06:24:46.112Z,2.29
2023-04-20T06:25:46.112Z,2.30
2023-04-20T06:26:46.116Z,2.30
2023-04-20T06:27:46.095Z,2.30
2023-04-20T06:28:46.076Z,2.31
2023-04-20T06:29:46.047Z,2.33
2023-04-20T06:30:46.034Z,2.34
2023-04-20T06:31:46.135Z,2.35
2023-04-20T06:32:46.034Z,2.36
2023-04-20T06:33:46.042Z,2.39
2023-04-20T06:34:45.997Z,2.42
2023-04-20T06:35:45.996Z,2.44
2023-04-20T06:36:45.943Z,2.45
2023-04-20T06:37:45.953Z,2.45
2023-04-20T06:38:45.968Z,2.47
2023-04-20T06:39:45.935Z,2.48
2023-04-20T06:40:45.906Z,2.49
2023-04-20T06:41:45.884Z,2.49
2023-04-20T06:42:45.887Z,2.49
2023-04-20T06:43:45.852Z,2.49
2023-04-20T06:44:45.905Z,2.49
2023-04-20T06:45:45.830Z,2.48
2023-04-20T06:46:45.843Z,2.47
2023-04-20T06:47:45.852Z,2.46
2023-04-20T06:48:45.803Z,2.46
2023-04-20T06:49:45.784Z,2.47
2023-04-20T06:50:45.781Z,2.47
2023-04-20T06:51:45.783Z,2.49
2023-04-20T06:52:45.753Z,2.51
2023-04-20T06:53:45.724Z,2.53
2023-04-20T06:54:45.718Z,2.55
2023-04-20T06:55:45.832Z,2.58
2023-04-20T06:56:45.690Z,2.61
2023-04-20T06:57:45.687Z,2.66
2023-04-20T06:58:45.677Z,2.70
2023-04-20T06:59:45.651Z,2.72
2023-04-20T07:00:45.634Z,2.73
2023-04-20T07:01:45.735Z,2.74
2023-04-20T07:02:45.755Z,2.74
2023-04-20T07:03:45.710Z,2.76
2023-04-20T07:04:45.682Z,2.76
2023-04-20T07:05:45.607Z,2.75
2023-04-20T07:06:45.566Z,2.75
2023-04-20T07:07:45.600Z,2.74
2023-04-20T07:08:45.560Z,2.75
2023-04-20T07:09:45.536Z,2.75
2023-04-20T07:10:45.511Z,2.73
2023-04-20T07:11:45.496Z,2.71
2023-04-20T07:12:45.505Z,2.70
2023-04-20T07:13:45.482Z,2.73
2023-04-20T07:14:45.490Z,2.74
2023-04-20T07:15:45.444Z,2.75
2023-04-20T07:16:45.466Z,2.76
2023-04-20T07:17:45.492Z,2.78
2023-04-20T07:18:45.426Z,2.78
2023-04-20T07:19:45.400Z,2.79
2023-04-20T07:20:45.390Z,2.80
2023-04-20T07:21:45.368Z,2.79
2023-04-20T07:22:45.385Z,2.78
2023-04-20T07:23:45.460Z,2.75
2023-04-20T07:24:45.367Z,2.72
2023-04-20T07:25:45.323Z,2.71
2023-04-20T07:26:45.424Z,2.69
2023-04-20T07:27:45.312Z,2.66
2023-04-20T07:28:45.298Z,2.61
2023-04-20T07:29:45.278Z,2.60
2023-04-20T07:30:45.297Z,2.60
2023-04-20T07:31:45.313Z,2.59
2023-04-20T07:32:45.274Z,2.58
2023-04-20T07:33:45.228Z,2.58
2023-04-20T07:34:45.195Z,2.60
2023-04-20T07:35:45.221Z,2.64
2023-04-20T07:36:45.219Z,2.66
2023-04-20T07:37:45.174Z,2.66
2023-04-20T07:38:45.162Z,2.70
2023-04-20T07:39:45.225Z,2.74
2023-04-20T07:40:45.122Z,2.79
2023-04-20T07:41:45.127Z,2.82
2023-04-20T07:42:45.152Z,2.84
2023-04-20T07:43:45.095Z,2.85
2023-04-20T07:44:45.076Z,2.83
2023-04-20T07:45:45.109Z,2.80
2023-04-20T07:46:45.072Z,2.81
2023-04-20T07:47:45.119Z,2.85
2023-04-20T07:48:45.043Z,2.90
2023-04-20T07:49:45.021Z,2.94
2023-04-20T07:50:44.997Z,2.95
2023-04-20T07:51:45.006Z,2.95
2023-04-20T07:52:44.973Z,2.96
2023-04-20T07:53:44.980Z,2.96
2023-04-20T07:54:44.970Z,2.95
2023-04-20T07:55:44.948Z,2.95
2023-04-20T07:56:44.925Z,2.99
2023-04-20T07:57:44.928Z,3.04
2023-04-20T07:58:44.900Z,3.08
2023-04-20T07:59:44.926Z,3.08
2023-04-20T08:00:44.868Z,3.05
2023-04-20T08:01:44.852Z,3.02
2023-04-20T08:02:44.945Z,3.02
2023-04-20T08:03:44.936Z,3.10
2023-04-20T08:04:45.044Z,3.20
2023-04-20T08:05:44.933Z,3.27
2023-04-20T08:06:44.812Z,3.31
2023-04-20T08:07:44.775Z,3.33
2023-04-20T08:08:44.768Z,3.32
2023-04-20T08:09:44.771Z,3.31
2023-04-20T08:10:44.739Z,3.33
2023-04-20T08:11:44.752Z,3.35
2023-04-20T08:12:44.714Z,3.36
2023-04-20T08:13:44.731Z,3.36
2023-04-20T08:14:44.685Z,3.36
2023-04-20T08:15:44.704Z,3.37
2023-04-20T08:16:44.700Z,3.42
2023-04-20T08:17:44.721Z,3.50
2023-04-20T08:18:44.634Z,3.56
2023-04-20T08:19:46.031Z,3.59
2023-04-20T08:20:44.614Z,3.61
2023-04-20T08:21:44.976Z,3.64
2023-04-20T08:22:44.590Z,3.71
2023-04-20T08:23:44.611Z,3.81
2023-04-20T08:24:44.562Z,3.88
2023-04-20T08:25:44.541Z,3.94
2023-04-20T08:26:44.537Z,4.04
2023-04-20T08:27:45.263Z,4.20
2023-04-20T08:28:44.508Z,4.38
2023-04-20T08:29:44.525Z,4.52
2023-04-20T08:30:44.478Z,4.61
2023-04-20T08:31:44.546Z,4.72
2023-04-20T08:32:44.485Z,4.85
2023-04-20T08:33:44.451Z,4.92
2023-04-20T08:34:44.482Z,4.94
2023-04-20T08:35:44.453Z,4.94
2023-04-20T08:36:44.418Z,4.96
2023-04-20T08:37:44.392Z,4.96
2023-04-20T08:38:44.372Z,4.95
2023-04-20T08:39:44.360Z,4.96
2023-04-20T08:40:44.341Z,5.01
2023-04-20T08:41:44.351Z,5.08
2023-04-20T08:42:44.322Z,5.06
2023-04-20T08:43:44.307Z,4.99
2023-04-20T08:44:44.301Z,4.92
2023-04-20T08:45:44.301Z,4.82
2023-04-20T08:46:44.319Z,4.77
2023-04-20T08:47:44.309Z,4.82
2023-04-20T08:48:44.232Z,4.86
2023-04-20T08:49:44.260Z,4.86
2023-04-20T08:50:44.252Z,4.82
2023-04-20T08:51:44.247Z,4.78
2023-04-20T08:52:44.252Z,4.75
2023-04-20T08:53:44.201Z,4.69
2023-04-20T08:55:44.157Z,4.63
2023-04-20T08:56:44.149Z,4.63
2023-04-20T08:57:44.155Z,4.61
2023-04-20T08:58:44.129Z,4.57
2023-04-20T08:59:44.107Z,4.51
2023-04-20T09:00:44.078Z,4.47
2023-04-20T09:01:44.112Z,4.43
2023-04-20T09:02:44.152Z,4.38
2023-04-20T09:03:44.148Z,4.31
2023-04-20T09:04:44.292Z,4.24
2023-04-20T09:05:44.014Z,4.20
2023-04-20T09:06:44.006Z,4.16
2023-04-20T09:07:44.013Z,4.14
2023-04-20T09:08:43.976Z,4.10
2023-04-20T09:09:43.968Z,4.04
2023-04-20T09:10:43.951Z,3.98
2023-04-20T09:11:43.993Z,3.94
2023-04-20T09:12:43.942Z,3.93
2023-04-20T09:13:43.912Z,3.91
2023-04-20T09:14:43.907Z,3.89
2023-04-20T09:15:43.884Z,3.88
2023-04-20T09:16:43.920Z,3.88
2023-04-20T09:17:43.917Z,3.87
2023-04-20T09:18:43.848Z,3.87
2023-04-20T09:19:43.890Z,3.87
2023-04-20T09:20:43.870Z,3.87
2023-04-20T09:21:43.817Z,3.86
2023-04-20T09:22:43.790Z,3.84
2023-04-20T09:23:43.799Z,3.83
2023-04-20T09:24:43.784Z,3.82
2023-04-20T09:25:43.780Z,3.82
2023-04-20T09:26:43.739Z,3.84
2023-04-20T09:27:43.747Z,3.86
2023-04-20T09:28:43.716Z,3.86
2023-04-20T09:29:43.818Z,3.86
2023-04-20T09:30:43.694Z,3.87
2023-04-20T09:31:43.744Z,3.89
2023-04-20T09:32:43.696Z,3.92
2023-04-20T09:33:43.651Z,3.94
2023-04-20T09:34:43.669Z,3.95
2023-04-20T09:35:43.616Z,3.95
2023-04-20T09:36:43.654Z,3.96
2023-04-20T09:37:43.610Z,3.97
2023-04-20T09:38:43.626Z,3.96
2023-04-20T09:39:43.605Z,3.93
2023-04-20T09:40:43.612Z,3.92
2023-04-20T09:41:43.571Z,3.92
2023-04-20T09:42:43.536Z,3.94
2023-04-20T09:43:43.525Z,3.98
2023-04-20T09:44:43.524Z,4.03
2023-04-20T09:45:43.555Z,4.09
2023-04-20T09:46:43.473Z,4.16
2023-04-20T09:47:43.489Z,4.24
2023-04-20T09:48:43.466Z,4.30
2023-04-20T09:49:43.471Z,4.37
2023-04-20T09:50:50.077Z,4.46
2023-04-20T09:51:43.432Z,4.53
2023-04-20T09:52:43.421Z,4.60
2023-04-20T09:53:43.421Z,4.67
2023-04-20T09:54:43.378Z,4.71
2023-04-20T09:55:43.422Z,4.79
2023-04-20T09:56:43.371Z,4.89
2023-04-20T09:57:43.341Z,4.99
2023-04-20T09:58:43.330Z,5.02
2023-04-20T09:59:43.325Z,5.03
2023-04-20T10:00:43.307Z,5.08
2023-04-20T10:01:43.449Z,5.12
2023-04-20T10:02:43.388Z,5.16
2023-04-20T10:03:43.599Z,5.20
2023-04-20T10:04:43.407Z,5.18
2023-04-20T10:05:43.259Z,5.18
2023-04-20T10:06:43.233Z,5.22
2023-04-20T10:07:43.234Z,5.29
2023-04-20T10:08:43.219Z,5.36
2023-04-20T10:09:43.191Z,5.45
2023-04-20T10:10:43.185Z,5.53
2023-04-20T10:11:52.522Z,5.60
2023-04-20T10:12:43.171Z,5.62
2023-04-20T10:13:43.180Z,5.62
2023-04-20T10:14:43.143Z,5.58
2023-04-20T10:15:43.118Z,5.45
2023-04-20T10:16:43.178Z,5.28
2023-04-20T10:17:43.136Z,5.11
2023-04-20T10:18:43.172Z,4.99
2023-04-20T10:19:43.071Z,4.94
2023-04-20T10:20:43.065Z,4.91
2023-04-20T10:21:43.029Z,4.88
2023-04-20T10:22:43.086Z,4.87
2023-04-20T10:23:43.008Z,4.87
2023-04-20T10:24:43.019Z,4.84
2023-04-20T10:25:42.992Z,4.80
2023-04-20T10:26:42.965Z,4.74
2023-04-20T10:27:42.950Z,4.70
2023-04-20T10:28:43.009Z,4.71
2023-04-20T10:29:42.942Z,4.73
2023-04-20T10:30:42.975Z,4.76
2023-04-20T10:31:42.932Z,4.82
2023-04-20T10:32:42.934Z,4.88
2023-04-20T10:33:42.886Z,4.94
2023-04-20T10:34:42.869Z,5.01
2023-04-20T10:35:44.621Z,5.09
2023-04-20T10:36:42.833Z,5.09
2023-04-20T10:37:42.831Z,5.06
2023-04-20T10:38:42.832Z,5.08
2023-04-20T10:39:42.810Z,5.13
2023-04-20T10:40:42.830Z,5.18
2023-04-20T10:41:43.043Z,5.23
2023-04-20T10:42:42.765Z,5.33
2023-04-20T10:43:42.749Z,5.44
2023-04-20T10:44:42.737Z,5.54
2023-04-20T10:45:42.723Z,5.60
2023-04-20T10:46:42.783Z,5.59
2023-04-20T10:47:42.779Z,5.49
2023-04-20T10:48:42.688Z,5.39
2023-04-20T10:49:42.674Z,5.35
2023-04-20T10:50:42.664Z,5.36
2023-04-20T10:51:42.662Z,5.42
2023-04-20T10:52:42.637Z,5.46
2023-04-20T10:53:42.641Z,5.47
2023-04-20T10:54:42.675Z,5.50
2023-04-20T10:55:42.633Z,5.55
2023-04-20T10:56:42.612Z,5.57
2023-04-20T10:57:42.568Z,5.57
2023-04-20T10:58:42.569Z,5.55
2023-04-20T10:59:42.614Z,5.52
2023-04-20T11:00:42.561Z,5.56
2023-04-20T11:01:42.560Z,5.65
2023-04-20T11:02:42.590Z,5.69
2023-04-20T11:03:42.767Z,5.71
2023-04-20T11:04:42.531Z,5.76
2023-04-20T11:05:42.523Z,5.88
2023-04-20T11:06:42.460Z,6.00
2023-04-20T11:07:42.458Z,6.05
2023-04-20T11:08:42.450Z,6.03
2023-04-20T11:09:42.429Z,6.02
2023-04-20T11:10:42.452Z,6.08
2023-04-20T11:11:42.390Z,6.08
2023-04-20T11:12:42.371Z,6.06
2023-04-20T11:13:42.364Z,6.09
2023-04-20T11:14:42.387Z,6.10
2023-04-20T11:15:42.418Z,6.11
2023-04-20T11:16:51.354Z,6.18
2023-04-20T11:17:42.328Z,6.25
2023-04-20T11:18:42.416Z,6.31
2023-04-20T11:19:42.303Z,6.32
2023-04-20T11:20:42.276Z,6.26
2023-04-20T11:21:42.281Z,6.14
2023-04-20T11:22:42.252Z,5.99
2023-04-20T11:23:42.476Z,5.87
2023-04-20T11:24:42.228Z,5.79
2023-04-20T11:25:42.222Z,5.73
2023-04-20T11:26:42.390Z,5.72
2023-04-20T11:27:42.299Z,5.77
2023-04-20T11:28:42.162Z,5.81
2023-04-20T11:29:42.146Z,5.84
2023-04-20T11:30:42.852Z,5.86
2023-04-20T11:31:42.254Z,5.87
2023-04-20T11:32:42.348Z,5.86
2023-04-20T11:33:42.262Z,5.84
2023-04-20T11:34:42.515Z,5.81
2023-04-20T11:35:42.092Z,5.80
2023-04-20T11:36:42.085Z,5.83
2023-04-20T11:37:42.076Z,5.86
2023-04-20T11:38:42.095Z,5.84
2023-04-20T11:39:42.021Z,5.83
2023-04-20T11:40:42.004Z,5.84
2023-04-20T11:41:42.008Z,5.88
2023-04-20T11:42:41.982Z,5.97
2023-04-20T11:43:41.999Z,6.00
2023-04-20T11:44:41.964Z,6.03
2023-04-20T11:45:42.006Z,6.08
2023-04-20T11:46:41.922Z,6.14
2023-04-20T11:47:41.987Z,6.18
2023-04-20T11:48:41.955Z,6.13
2023-04-20T11:49:41.917Z,6.04
2023-04-20T11:50:42.673Z,5.95
2023-04-20T11:51:41.868Z,5.92
2023-04-20T11:52:41.851Z,5.94
2023-04-20T11:53:41.874Z,6.02
2023-04-20T11:54:41.856Z,6.13
2023-04-20T11:55:41.835Z,6.26
2023-04-20T11:56:42.472Z,6.39
2023-04-20T11:57:41.816Z,6.52
2023-04-20T11:58:41.770Z,6.65
2023-04-20T11:59:41.770Z,6.74
2023-04-20T12:00:41.746Z,6.81
2023-04-20T12:01:41.766Z,6.86
2023-04-20T12:02:41.954Z,6.89
2023-04-20T12:03:42.629Z,6.87
2023-04-20T12:04:41.984Z,6.78
2023-04-20T12:05:41.756Z,6.70
2023-04-20T12:06:41.680Z,6.69
2023-04-20T12:07:41.679Z,6.72
2023-04-20T12:08:41.647Z,6.72
2023-04-20T12:09:41.639Z,6.66
2023-04-20T12:10:41.627Z,6.54
2023-04-20T12:11:41.624Z,6.41
2023-04-20T12:12:41.596Z,6.29
2023-04-20T12:13:41.602Z,6.23
2023-04-20T12:14:41.560Z,6.21
2023-04-20T12:15:41.624Z,6.22
2023-04-20T12:16:41.551Z,6.22
2023-04-20T12:17:41.605Z,6.18
2023-04-20T12:18:41.527Z,6.14
2023-04-20T12:19:41.533Z,6.12
2023-04-20T12:20:41.497Z,6.08
2023-04-20T12:21:41.491Z,6.04
2023-04-20T12:22:41.460Z,6.00
2023-04-20T12:23:41.471Z,5.98
2023-04-20T12:24:41.460Z,5.95
2023-04-20T12:25:41.439Z,5.88
2023-04-20T12:26:41.420Z,5.75
2023-04-20T12:27:41.403Z,5.67
2023-04-20T12:28:41.384Z,5.65
2023-04-20T12:29:41.392Z,5.63
2023-04-20T12:30:41.431Z,5.60
2023-04-20T12:31:41.447Z,5.57
2023-04-20T12:32:41.349Z,5.54
2023-04-20T12:33:41.317Z,5.51
2023-04-20T12:34:41.330Z,5.46
2023-04-20T12:35:41.309Z,5.41
2023-04-20T12:36:41.284Z,5.35
2023-04-20T12:37:41.269Z,5.33
2023-04-20T12:38:41.258Z,5.33
2023-04-20T12:39:41.261Z,5.33
2023-04-20T12:40:41.247Z,5.31
2023-04-20T12:41:41.238Z,5.33
2023-04-20T12:42:41.204Z,5.36
2023-04-20T12:43:41.192Z,5.38
2023-04-20T12:44:41.179Z,5.40
2023-04-20T12:45:41.166Z,5.44
2023-04-20T12:46:41.209Z,5.47
2023-04-20T12:47:41.162Z,5.45
2023-04-20T12:48:41.115Z,5.39
2023-04-20T12:49:41.107Z,5.33
2023-04-20T12:50:41.107Z,5.31
2023-04-20T12:51:41.122Z,5.32
2023-04-20T12:52:41.076Z,5.35
2023-04-20T12:53:41.067Z,5.39
2023-04-20T12:54:43.356Z,5.41
2023-04-20T12:55:41.039Z,5.39
2023-04-20T12:56:41.027Z,5.34
2023-04-20T12:57:41.027Z,5.29
2023-04-20T12:58:41.027Z,5.24
2023-04-20T12:59:40.989Z,5.18
2023-04-20T13:00:41.002Z,5.11
2023-04-20T13:01:40.976Z,5.05
2023-04-20T13:02:41.089Z,5.02
2023-04-20T13:03:41.090Z,5.01
2023-04-20T13:04:40.972Z,4.99
2023-04-20T13:05:40.932Z,4.96
2023-04-20T13:06:40.907Z,4.94
2023-04-20T13:07:40.895Z,4.95
2023-04-20T13:08:40.877Z,4.98
2023-04-20T13:09:40.882Z,4.98
2023-04-20T13:10:40.851Z,4.99
2023-04-20T13:11:40.863Z,5.00
2023-04-20T13:12:40.824Z,5.00
2023-04-20T13:13:40.819Z,4.99
2023-04-20T13:14:40.805Z,5.00
2023-04-20T13:15:40.797Z,5.04
2023-04-20T13:16:40.831Z,5.10
2023-04-20T13:17:40.774Z,5.16
2023-04-20T13:18:40.733Z,5.21
2023-04-20T13:19:40.724Z,5.27